createdAt,value
2019-05-02T00:01:00.921Z,50.36
2019-05-02T00:03:55.182Z,50.38
2019-05-02T00:07:05.558Z,50.81
2019-05-02T00:09:52.971Z,51.03
2019-05-02T00:12:26.469Z,51.17
2019-05-02T00:15:05.411Z,51.11
2019-05-02T00:17:41.897Z,51.06
2019-05-02T00:20:15.282Z,50.97
2019-05-02T00:22:52.467Z,50.94
2019-05-02T00:25:23.164Z,50.93
2019-05-02T00:27:52.830Z,50.86
2019-05-02T00:30:23.074Z,50.85
2019-05-02T00:32:53.261Z,50.79
2019-05-02T00:35:24.110Z,50.79
2019-05-02T00:37:57.462Z,50.82
2019-05-02T00:40:27.821Z,50.79
2019-05-02T00:42:58.180Z,50.74
2019-05-02T00:45:28.985Z,50.70
2019-05-02T00:48:09.815Z,50.72
2019-05-02T00:50:40.682Z,50.76
2019-05-02T00:53:12.296Z,50.96
2019-05-02T00:55:46.108Z,50.99
2019-05-02T00:58:15.639Z,51.04
2019-05-02T01:01:07.606Z,50.99
2019-05-02T01:03:38.892Z,50.96
2019-05-02T01:06:13.955Z,51.01
2019-05-02T01:08:42.034Z,50.98
2019-05-02T01:11:12.002Z,50.94
2019-05-02T01:13:50.290Z,50.93
2019-05-02T01:22:17.272Z,51.10
2019-05-02T01:24:54.581Z,51.13
2019-05-02T01:28:00.193Z,51.08
2019-05-02T01:30:46.188Z,51.25
2019-05-02T01:33:28.125Z,51.36
2019-05-02T01:36:22.072Z,51.53
2019-05-02T01:38:54.040Z,51.78
2019-05-02T01:41:29.204Z,52.00
2019-05-02T01:46:46.718Z,52.41
2019-05-02T01:49:21.320Z,52.48
2019-05-02T01:51:49.332Z,52.51
2019-05-02T01:54:21.972Z,52.58
2019-05-02T01:56:51.845Z,52.54
2019-05-02T01:59:29.147Z,52.57
2019-05-02T02:01:57.910Z,52.55
2019-05-02T02:04:31.486Z,52.74
2019-05-02T02:07:06.776Z,52.95
2019-05-02T02:09:38.938Z,53.26
2019-05-02T02:12:09.831Z,53.24
2019-05-02T02:14:40.939Z,53.38
2019-05-02T02:17:15.468Z,53.45
2019-05-02T02:19:50.235Z,53.51
2019-05-02T02:22:39.343Z,53.55
2019-05-02T02:25:32.232Z,53.80
2019-05-02T02:28:02.274Z,54.19
2019-05-02T02:30:36.120Z,54.53
2019-05-02T02:34:32.642Z,54.50
2019-05-02T02:36:01.407Z,54.21
2019-05-02T02:51:37.330Z,53.23
2019-05-02T02:54:54.466Z,53.39
2019-05-02T02:57:31.917Z,53.28
2019-05-02T03:00:07.673Z,53.15
2019-05-02T03:02:35.766Z,53.12
2019-05-02T03:05:05.829Z,53.03
2019-05-02T03:07:36.023Z,52.93
2019-05-02T03:10:48.127Z,52.82
2019-05-02T03:14:09.588Z,52.74
2019-05-02T03:16:46.933Z,52.72
2019-05-02T03:19:21.465Z,52.76
2019-05-02T03:22:01.066Z,52.86
2019-05-02T03:27:53.101Z,52.84
2019-05-02T03:30:32.310Z,52.79
2019-05-02T03:33:27.500Z,52.71
2019-05-02T03:36:00.649Z,52.60
2019-05-02T03:38:36.311Z,52.51
2019-05-02T03:41:13.347Z,52.48
2019-05-02T03:43:45.472Z,52.50
2019-05-02T03:47:02.302Z,52.48
2019-05-02T03:49:29.639Z,52.41
2019-05-02T03:52:02.852Z,52.51
2019-05-02T03:54:32.448Z,52.52
2019-05-02T03:57:03.185Z,52.46
2019-05-02T03:59:38.738Z,52.38
2019-05-02T04:02:04.960Z,52.41
2019-05-02T04:04:35.985Z,52.41
2019-05-02T04:07:21.521Z,52.40
2019-05-02T04:10:01.708Z,52.38
2019-05-02T04:12:45.211Z,52.54
2019-05-02T04:15:35.176Z,52.89
2019-05-02T04:18:08.378Z,53.10
2019-05-02T04:20:43.497Z,53.24
2019-05-02T04:23:14.515Z,53.52
2019-05-02T04:25:48.949Z,53.64
2019-05-02T04:28:19.781Z,53.67
2019-05-02T04:30:51.318Z,53.80
2019-05-02T04:33:22.745Z,53.97
2019-05-02T04:35:52.458Z,54.11
2019-05-02T04:38:31.644Z,54.11
2019-05-02T04:40:58.969Z,54.10
2019-05-02T04:43:28.746Z,54.21
2019-05-02T04:46:00.191Z,54.33
2019-05-02T04:48:34.654Z,54.39
2019-05-02T04:51:10.116Z,54.38
2019-05-02T04:53:41.161Z,54.33
2019-05-02T04:56:07.125Z,54.22
2019-05-02T04:58:39.752Z,54.27
2019-05-02T05:01:06.347Z,54.37
2019-05-02T05:03:37.646Z,54.34
2019-05-02T05:06:11.914Z,54.38
2019-05-02T05:08:38.821Z,54.34
2019-05-02T05:11:09.186Z,54.31
2019-05-02T05:13:38.558Z,54.25
2019-05-02T05:16:14.866Z,54.20
2019-05-02T05:18:39.197Z,54.04
2019-05-02T05:21:10.682Z,54.02
2019-05-02T05:24:10.723Z,54.04
2019-05-02T05:26:43.014Z,53.85
2019-05-02T05:29:13.946Z,54.12
2019-05-02T05:31:43.915Z,53.91
2019-05-02T05:34:17.358Z,53.88
2019-05-02T05:36:48.163Z,54.03
2019-05-02T05:39:17.826Z,53.69
2019-05-02T05:41:52.353Z,53.71
2019-05-02T05:44:23.288Z,53.61
2019-05-02T05:46:51.724Z,53.24
2019-05-02T05:49:21.828Z,53.16
2019-05-02T05:51:54.554Z,53.08
2019-05-02T05:54:22.717Z,52.81
2019-05-02T05:56:52.507Z,52.75
2019-05-02T05:59:26.866Z,52.80
2019-05-02T06:01:53.239Z,52.63
2019-05-02T06:04:24.081Z,52.56
2019-05-02T06:06:58.382Z,52.48
2019-05-02T06:09:26.243Z,52.46
2019-05-02T06:11:56.677Z,52.64
2019-05-02T06:14:26.521Z,52.64
2019-05-02T06:16:56.203Z,52.55
2019-05-02T06:19:26.901Z,52.50
2019-05-02T06:21:57.562Z,52.58
2019-05-02T06:24:27.011Z,52.66
2019-05-02T06:26:56.437Z,52.82
2019-05-02T06:29:25.995Z,52.97
2019-05-02T06:31:56.945Z,53.08
2019-05-02T06:34:26.530Z,53.15
2019-05-02T06:36:55.918Z,52.96
2019-05-02T06:39:27.052Z,52.69
2019-05-02T06:41:57.495Z,52.64
2019-05-02T06:44:27.629Z,52.56
2019-05-02T06:46:59.130Z,52.28
2019-05-02T06:49:28.398Z,51.80
2019-05-02T06:51:57.842Z,51.44
2019-05-02T06:54:27.353Z,50.56
2019-05-02T06:56:58.192Z,50.77
2019-05-02T06:59:27.528Z,50.37
2019-05-02T07:01:58.760Z,50.25
2019-05-02T07:04:28.265Z,49.98
2019-05-02T07:06:59.589Z,49.76
2019-05-02T07:09:39.840Z,49.40
2019-05-02T07:12:01.563Z,48.75
2019-05-02T07:14:31.394Z,48.49
2019-05-02T07:17:18.459Z,48.29
2019-05-02T07:19:51.739Z,48.32
2019-05-02T07:22:21.988Z,48.52
2019-05-02T07:24:51.508Z,48.66
2019-05-02T07:27:21.160Z,48.59
2019-05-02T07:29:52.184Z,48.96
2019-05-02T07:32:24.896Z,49.35
2019-05-02T07:34:53.233Z,49.57
2019-05-02T07:37:22.875Z,49.47
2019-05-02T07:39:52.848Z,49.26
2019-05-02T07:42:22.409Z,49.38
2019-05-02T07:44:51.921Z,49.42
2019-05-02T07:47:21.305Z,49.20
2019-05-02T07:49:50.727Z,48.68
2019-05-02T07:52:20.344Z,48.24
2019-05-02T07:54:49.884Z,48.35
2019-05-02T07:57:19.375Z,47.65
2019-05-02T07:59:49.901Z,47.80
2019-05-02T08:02:20.376Z,47.75
2019-05-02T08:04:50.726Z,47.76
2019-05-02T08:07:25.901Z,47.87
2019-05-02T08:09:54.640Z,48.20
2019-05-02T08:12:24.072Z,47.90
2019-05-02T08:14:53.484Z,48.01
2019-05-02T08:17:22.958Z,48.09
2019-05-02T08:19:52.357Z,47.97
2019-05-02T08:22:21.815Z,48.35
2019-05-02T08:24:51.241Z,48.84
2019-05-02T08:27:39.614Z,49.00
2019-05-02T08:30:19.876Z,48.80
2019-05-02T08:32:49.551Z,47.78
2019-05-02T08:35:18.910Z,47.64
2019-05-02T08:37:48.305Z,48.12
2019-05-02T08:40:17.734Z,48.04
2019-05-02T08:42:47.238Z,47.73
2019-05-02T08:45:16.790Z,47.04
2019-05-02T08:47:46.363Z,46.55
2019-05-02T08:50:16.106Z,46.67
2019-05-02T08:52:47.930Z,46.72
2019-05-02T08:55:18.858Z,47.06
2019-05-02T08:57:48.262Z,47.17
2019-05-02T09:00:18.067Z,46.35
2019-05-02T09:02:47.454Z,46.49
2019-05-02T09:05:18.316Z,47.00
2019-05-02T09:07:47.714Z,46.06
2019-05-02T09:10:17.233Z,45.83
2019-05-02T09:12:46.597Z,45.83
2019-05-02T09:15:17.155Z,45.73
2019-05-02T09:17:54.905Z,45.96
2019-05-02T09:20:20.747Z,46.18
2019-05-02T09:22:52.263Z,46.17
2019-05-02T09:25:21.961Z,46.47
2019-05-02T09:27:52.687Z,46.47
2019-05-02T09:30:25.655Z,46.42
2019-05-02T09:32:57.115Z,46.23
2019-05-02T09:35:25.149Z,45.83
2019-05-02T09:37:56.573Z,45.79
2019-05-02T09:40:25.959Z,45.14
2019-05-02T09:42:58.563Z,44.39
2019-05-02T09:45:37.359Z,43.44
2019-05-02T09:48:08.915Z,44.47
2019-05-02T09:50:38.639Z,45.00
2019-05-02T09:53:14.867Z,45.32
2019-05-02T09:55:43.804Z,45.09
2019-05-02T09:58:14.794Z,45.11
2019-05-02T10:01:05.220Z,44.10
2019-05-02T10:03:34.639Z,44.44
2019-05-02T10:06:08.449Z,44.26
2019-05-02T10:08:38.215Z,43.42
2019-05-02T10:11:06.435Z,43.84
2019-05-02T10:13:35.855Z,43.83
2019-05-02T10:16:05.619Z,43.58
2019-05-02T10:18:35.156Z,43.37
2019-05-02T10:21:07.744Z,43.51
2019-05-02T10:23:36.389Z,43.78
2019-05-02T10:26:06.249Z,44.36
2019-05-02T10:28:35.692Z,44.48
2019-05-02T10:31:05.541Z,44.27
2019-05-02T10:33:37.628Z,43.65
2019-05-02T10:36:11.857Z,44.03
2019-05-02T10:38:39.751Z,44.37
2019-05-02T10:41:12.105Z,44.36
2019-05-02T10:43:42.427Z,43.92
2019-05-02T10:46:37.777Z,43.22
2019-05-02T10:49:13.836Z,43.13
2019-05-02T10:51:49.051Z,43.30
2019-05-02T10:54:14.538Z,43.25
2019-05-02T10:56:43.970Z,43.34
2019-05-02T10:59:13.464Z,43.28
2019-05-02T11:02:02.513Z,42.90
2019-05-02T11:04:36.201Z,43.33
2019-05-02T11:07:05.786Z,43.47
2019-05-02T11:09:35.296Z,43.74
2019-05-02T11:12:07.906Z,43.62
2019-05-02T11:14:56.411Z,43.20
2019-05-02T11:17:32.331Z,43.13
2019-05-02T11:20:05.290Z,42.86
2019-05-02T11:22:34.751Z,43.15
2019-05-02T11:25:04.602Z,43.29
2019-05-02T11:27:34.269Z,43.31
2019-05-02T11:30:04.083Z,43.56
2019-05-02T11:32:33.734Z,43.61
2019-05-02T11:35:03.480Z,43.74
2019-05-02T11:37:33.083Z,43.61
2019-05-02T11:40:06.199Z,43.97
2019-05-02T11:42:33.890Z,43.59
2019-05-02T11:45:03.429Z,43.31
2019-05-02T11:47:33.004Z,43.43
2019-05-02T11:50:02.743Z,43.53
2019-05-02T11:52:37.192Z,43.63
2019-05-02T11:55:03.481Z,43.35
2019-05-02T11:57:33.272Z,43.16
2019-05-02T12:00:05.181Z,43.16
2019-05-02T12:03:02.123Z,43.32
2019-05-02T12:05:39.166Z,43.59
2019-05-02T12:08:09.382Z,43.36
2019-05-02T12:10:39.251Z,42.90
2019-05-02T12:13:11.907Z,42.64
2019-05-02T12:15:43.922Z,42.87
2019-05-02T12:18:12.116Z,43.25
2019-05-02T12:20:42.573Z,43.50
2019-05-02T12:23:16.252Z,43.59
2019-05-02T12:25:46.364Z,43.49
2019-05-02T12:28:16.488Z,43.18
2019-05-02T12:30:46.265Z,42.86
2019-05-02T12:33:15.913Z,42.98
2019-05-02T12:35:45.885Z,43.31
2019-05-02T12:38:16.829Z,43.11
2019-05-02T12:40:46.393Z,43.54
2019-05-02T12:43:15.790Z,43.14
2019-05-02T12:45:48.109Z,43.27
2019-05-02T12:48:17.648Z,43.20
2019-05-02T12:50:47.985Z,42.83
2019-05-02T12:53:18.876Z,42.52
2019-05-02T12:55:48.454Z,42.61
2019-05-02T12:58:18.214Z,42.44
2019-05-02T13:00:47.716Z,42.69
2019-05-02T13:03:36.308Z,42.91
2019-05-02T13:06:06.107Z,42.90
2019-05-02T13:08:48.869Z,41.98
2019-05-02T13:11:46.442Z,42.17
2019-05-02T13:14:19.733Z,42.89
2019-05-02T13:16:53.489Z,43.47
2019-05-02T13:19:36.792Z,42.62
2019-05-02T13:22:06.790Z,42.12
2019-05-02T13:24:42.434Z,42.32
2019-05-02T13:27:14.992Z,42.55
2019-05-02T13:29:44.924Z,41.97
2019-05-02T13:32:33.501Z,41.35
2019-05-02T13:35:32.339Z,41.71
2019-05-02T13:38:05.279Z,42.21
2019-05-02T13:40:41.808Z,42.91
2019-05-02T13:43:12.517Z,42.26
2019-05-02T13:46:08.316Z,43.30
2019-05-02T13:48:37.909Z,43.26
2019-05-02T13:51:12.565Z,43.15
2019-05-02T13:54:02.255Z,42.33
2019-05-02T13:56:52.884Z,42.55
2019-05-02T13:59:23.187Z,43.15
2019-05-02T14:01:54.804Z,43.19
2019-05-02T14:04:27.908Z,43.29
2019-05-02T14:06:58.797Z,43.30
2019-05-02T14:10:01.973Z,43.23
2019-05-02T14:12:45.237Z,43.43
2019-05-02T14:15:22.230Z,43.67
2019-05-02T14:17:53.112Z,44.42
2019-05-02T14:20:22.996Z,44.07
2019-05-02T14:22:54.781Z,43.70
2019-05-02T14:25:24.399Z,43.96
2019-05-02T14:27:55.765Z,44.28
2019-05-02T14:30:37.236Z,44.14
2019-05-02T14:33:08.905Z,43.62
2019-05-02T14:35:38.385Z,43.31
2019-05-02T14:38:08.681Z,43.31
2019-05-02T14:40:46.572Z,42.89
2019-05-02T14:43:38.138Z,43.06
2019-05-02T14:46:06.650Z,42.05
2019-05-02T14:48:45.093Z,42.67
2019-05-02T14:51:16.902Z,42.70
2019-05-02T14:53:43.674Z,42.80
2019-05-02T14:56:37.536Z,43.28
2019-05-02T14:59:09.150Z,44.41
2019-05-02T15:01:42.111Z,45.78
2019-05-02T15:04:12.902Z,45.17
2019-05-02T15:06:47.241Z,43.97
2019-05-02T15:09:22.641Z,41.97
2019-05-02T15:11:58.890Z,40.22
2019-05-02T15:14:35.666Z,39.59
2019-05-02T15:17:08.587Z,39.09
2019-05-02T15:19:42.626Z,40.63
2019-05-02T15:22:12.496Z,42.03
2019-05-02T15:24:43.492Z,40.86
2019-05-02T15:27:17.801Z,41.40
2019-05-02T15:29:46.022Z,39.77
2019-05-02T15:32:41.996Z,40.25
2019-05-02T15:35:31.893Z,40.04
2019-05-02T15:38:06.382Z,40.21
2019-05-02T15:40:49.731Z,40.73
2019-05-02T16:16:47.846Z,39.67
2019-05-02T16:19:44.154Z,39.74
2019-05-02T16:22:38.391Z,38.93
2019-05-02T16:25:42.905Z,39.97
2019-05-02T16:28:15.896Z,40.74
2019-05-02T16:31:17.044Z,40.06
2019-05-02T16:33:42.700Z,39.69
2019-05-02T16:36:26.004Z,39.88
2019-05-02T16:38:56.979Z,40.24
2019-05-02T16:41:33.976Z,41.05
2019-05-02T16:56:42.385Z,42.47
2019-05-02T16:59:12.732Z,41.13
2019-05-02T17:01:52.643Z,41.10
2019-05-02T17:05:12.719Z,41.12
2019-05-02T17:08:44.487Z,41.59
2019-05-02T17:11:39.522Z,42.05
2019-05-02T17:20:33.668Z,43.60
2019-05-02T17:26:13.329Z,42.55
2019-05-02T17:28:47.215Z,42.94
2019-05-02T17:43:03.044Z,45.31
2019-05-02T17:48:10.406Z,45.27
2019-05-02T17:53:53.631Z,45.88
2019-05-02T17:56:59.139Z,46.43
2019-05-02T18:02:55.110Z,47.08
2019-05-02T18:05:26.499Z,47.17
2019-05-02T18:07:54.120Z,47.52
2019-05-02T18:12:59.977Z,48.19
2019-05-02T18:19:01.859Z,48.26
2019-05-02T18:28:21.114Z,48.43
2019-05-02T18:30:57.337Z,47.79
2019-05-02T18:36:57.548Z,46.66
2019-05-02T18:39:34.805Z,47.35
2019-05-02T18:42:26.650Z,47.69
2019-05-02T18:45:25.275Z,48.25
2019-05-02T18:48:21.854Z,48.47
2019-05-02T18:51:21.821Z,48.52
2019-05-02T18:54:07.521Z,48.59
2019-05-02T18:56:41.141Z,48.55
2019-05-02T18:59:05.416Z,48.82
2019-05-02T19:01:38.911Z,49.01
2019-05-02T19:04:13.113Z,49.18
2019-05-02T19:06:53.024Z,48.26
2019-05-02T19:12:34.024Z,47.43
2019-05-02T19:15:21.520Z,47.49
2019-05-02T19:17:52.992Z,47.60
2019-05-02T19:32:57.840Z,49.50
2019-05-02T19:41:14.202Z,50.44
2019-05-02T20:25:37.493Z,52.64
2019-05-02T20:28:03.391Z,52.63
2019-05-02T20:30:33.150Z,52.57
2019-05-02T20:33:05.222Z,52.46
2019-05-02T20:35:34.232Z,52.40
2019-05-02T20:38:24.257Z,52.50
2019-05-02T20:40:55.946Z,52.46
2019-05-02T20:43:44.641Z,52.68
2019-05-02T20:46:14.574Z,52.69
2019-05-02T20:48:46.798Z,52.78
2019-05-02T20:51:53.503Z,52.84
2019-05-02T20:54:28.300Z,52.93
2019-05-02T20:57:03.398Z,52.93
2019-05-02T20:59:55.527Z,52.91
2019-05-02T21:02:51.797Z,53.08
2019-05-02T21:05:42.782Z,53.01
2019-05-02T21:08:38.478Z,53.14
2019-05-02T21:11:21.132Z,53.18
2019-05-02T21:13:52.497Z,53.38
2019-05-02T21:16:46.446Z,53.36
2019-05-02T21:22:49.742Z,53.44
2019-05-02T21:25:28.849Z,53.43
2019-05-02T21:28:27.774Z,53.46
2019-05-02T21:31:02.795Z,53.50
2019-05-02T21:33:42.757Z,53.39
2019-05-02T21:36:16.098Z,53.34
2019-05-02T21:38:53.663Z,53.35
2019-05-02T21:41:26.001Z,53.30
2019-05-02T21:43:56.838Z,53.24
2019-05-02T21:46:29.161Z,53.08
2019-05-02T21:49:00.039Z,52.93
2019-05-02T21:51:48.733Z,52.79
2019-05-02T21:54:53.287Z,52.62
2019-05-02T21:57:32.202Z,52.47
2019-05-02T22:01:08.738Z,52.54
2019-05-02T22:09:58.294Z,52.77
2019-05-02T22:13:04.007Z,52.68
2019-05-02T22:18:49.469Z,52.52
2019-05-02T22:21:22.875Z,52.46
2019-05-02T22:24:08.131Z,52.45
2019-05-02T22:26:29.503Z,52.42
2019-05-02T22:29:02.186Z,52.47
2019-05-02T22:32:47.859Z,52.52
2019-05-02T22:35:18.841Z,52.53
2019-05-02T22:41:48.725Z,52.93
2019-05-02T22:44:53.792Z,53.32
2019-05-02T22:47:47.234Z,53.58
2019-05-02T22:50:17.872Z,53.68
2019-05-02T22:52:47.464Z,53.75
2019-05-02T22:55:19.289Z,53.79
2019-05-02T22:57:48.831Z,53.76
2019-05-02T23:00:18.748Z,53.72
2019-05-02T23:02:48.309Z,53.61
2019-05-02T23:05:17.946Z,53.56
2019-05-02T23:07:47.500Z,53.42
2019-05-02T23:10:17.358Z,53.36
2019-05-02T23:12:47.288Z,53.21
2019-05-02T23:15:16.986Z,53.11
2019-05-02T23:17:46.666Z,53.16
2019-05-02T23:20:16.364Z,53.08
2019-05-02T23:22:45.859Z,53.05
2019-05-02T23:25:42.230Z,52.92
2019-05-02T23:28:18.471Z,52.99
2019-05-02T23:30:48.174Z,53.00
2019-05-02T23:33:17.753Z,53.03
2019-05-02T23:35:47.288Z,52.92
2019-05-02T23:38:18.767Z,52.87
2019-05-02T23:40:48.846Z,52.88
2019-05-02T23:43:18.570Z,52.91
2019-05-02T23:45:48.225Z,52.96
2019-05-02T23:48:17.946Z,53.00
2019-05-02T23:50:47.766Z,52.98
2019-05-02T23:53:17.430Z,52.94
2019-05-02T23:55:47.181Z,52.91
2019-05-02T23:58:16.853Z,52.93
